createdAt,value
2022-08-14T00:01:55.481Z,18.19
2022-08-14T00:04:35.062Z,18.21
2022-08-14T00:07:09.711Z,18.24
2022-08-14T00:09:56.281Z,18.25
2022-08-14T00:12:33.221Z,18.26
2022-08-14T00:15:09.508Z,18.28
2022-08-14T00:17:38.177Z,18.30
2022-08-14T00:20:15.853Z,18.33
2022-08-14T00:22:57.644Z,18.31
2022-08-14T00:25:41.811Z,18.33
2022-08-14T00:28:15.398Z,18.31
2022-08-14T00:30:46.972Z,18.32
2022-08-14T00:33:15.300Z,18.25
2022-08-14T00:36:36.496Z,18.30
2022-08-14T00:38:30.049Z,18.31
2022-08-14T00:40:59.352Z,18.34
2022-08-14T00:43:31.577Z,18.37
2022-08-14T00:46:32.902Z,18.35
2022-08-14T00:48:57.847Z,18.38
2022-08-14T00:51:25.499Z,18.39
2022-08-14T00:54:11.233Z,18.38
2022-08-14T00:56:54.761Z,18.36
2022-08-14T00:59:23.315Z,18.35
2022-08-14T01:01:54.415Z,18.37
2022-08-14T01:04:52.452Z,18.35
2022-08-14T01:07:11.003Z,18.35
2022-08-14T01:09:41.535Z,18.35
2022-08-14T01:12:09.510Z,18.33
2022-08-14T01:14:37.703Z,18.32
2022-08-14T01:17:08.959Z,18.33
2022-08-14T01:19:54.809Z,18.30
2022-08-14T01:22:26.834Z,18.28
2022-08-14T01:24:54.433Z,18.26
2022-08-14T01:27:24.298Z,18.25
2022-08-14T01:30:01.043Z,18.25
2022-08-14T01:32:37.706Z,18.24
2022-08-14T01:35:17.357Z,18.23
2022-08-14T01:37:58.658Z,18.21
2022-08-14T01:40:33.320Z,18.20
2022-08-14T01:43:18.406Z,18.19
2022-08-14T01:46:05.925Z,18.16
2022-08-14T01:48:37.009Z,18.15
2022-08-14T01:51:18.782Z,18.14
2022-08-14T01:53:54.782Z,18.13
2022-08-14T01:56:39.710Z,18.10
2022-08-14T01:59:18.329Z,18.11
2022-08-14T02:01:59.059Z,18.13
2022-08-14T02:04:55.962Z,18.13
2022-08-14T02:07:34.990Z,18.11
2022-08-14T02:10:13.078Z,18.13
2022-08-14T02:12:48.823Z,18.11
2022-08-14T02:15:22.095Z,18.09
2022-08-14T02:17:50.440Z,18.07
2022-08-14T02:20:23.353Z,18.09
2022-08-14T02:22:54.838Z,18.10
2022-08-14T02:25:22.850Z,18.10
2022-08-14T02:28:25.074Z,18.11
2022-08-14T02:30:38.330Z,18.10
2022-08-14T02:33:07.470Z,18.11
2022-08-14T02:35:40.971Z,18.12
2022-08-14T02:38:11.769Z,18.13
2022-08-14T02:41:20.540Z,18.11
2022-08-14T02:43:48.456Z,18.14
2022-08-14T02:46:20.624Z,18.15
2022-08-14T02:49:04.606Z,18.15
2022-08-14T02:51:34.632Z,18.15
2022-08-14T02:54:02.051Z,18.16
2022-08-14T02:57:15.614Z,18.19
2022-08-14T02:59:19.020Z,18.19
2022-08-14T03:01:51.209Z,18.19
2022-08-14T03:04:22.620Z,18.19
2022-08-14T03:07:06.103Z,18.20
2022-08-14T03:10:24.427Z,18.20
2022-08-14T03:12:27.015Z,18.20
2022-08-14T03:15:02.811Z,18.20
2022-08-14T03:17:31.811Z,18.19
2022-08-14T03:20:11.330Z,18.18
2022-08-14T03:22:41.912Z,18.19
2022-08-14T03:25:12.232Z,18.19
2022-08-14T03:27:48.461Z,18.20
2022-08-14T03:30:38.838Z,18.22
2022-08-14T03:33:12.020Z,18.21
2022-08-14T03:36:05.525Z,18.23
2022-08-14T03:39:15.351Z,18.23
2022-08-14T03:41:17.847Z,18.23
2022-08-14T03:43:46.062Z,18.25
2022-08-14T03:46:51.868Z,18.26
2022-08-14T03:49:16.464Z,18.25
2022-08-14T03:51:55.576Z,18.28
2022-08-14T03:54:24.598Z,18.22
2022-08-14T03:56:51.528Z,18.29
2022-08-14T03:59:20.019Z,18.29
2022-08-14T04:01:57.902Z,18.30
2022-08-14T04:04:30.895Z,18.34
2022-08-14T04:06:59.683Z,18.37
2022-08-14T04:09:27.844Z,18.41
2022-08-14T04:11:56.287Z,18.42
2022-08-14T04:14:25.223Z,18.44
2022-08-14T04:16:52.124Z,18.48
2022-08-14T04:19:24.565Z,18.52
2022-08-14T04:22:03.523Z,18.61
2022-08-14T04:24:38.185Z,18.68
2022-08-14T04:27:13.484Z,18.76
2022-08-14T04:29:45.328Z,18.89
2022-08-14T04:32:58.211Z,19.02
2022-08-14T04:35:07.246Z,19.19
2022-08-14T04:37:53.686Z,19.37
2022-08-14T04:40:40.425Z,19.57
2022-08-14T04:43:26.636Z,19.75
2022-08-14T04:46:11.825Z,19.95
2022-08-14T04:48:59.723Z,20.15
2022-08-14T04:51:28.285Z,20.33
2022-08-14T04:53:57.518Z,20.42
2022-08-14T04:56:31.213Z,20.50
2022-08-14T04:59:09.701Z,20.65
2022-08-14T05:01:45.278Z,20.82
2022-08-14T05:04:20.481Z,21.07
2022-08-14T05:06:49.502Z,21.37
2022-08-14T05:09:20.677Z,21.53
2022-08-14T05:11:50.012Z,21.65
2022-08-14T05:14:45.661Z,21.78
2022-08-14T05:17:11.459Z,21.95
2022-08-14T05:19:44.769Z,22.12
2022-08-14T05:22:27.063Z,22.29
2022-08-14T05:24:54.379Z,22.32
2022-08-14T05:27:22.847Z,22.36
2022-08-14T05:29:55.226Z,22.36
2022-08-14T05:32:26.923Z,22.24
2022-08-14T05:34:58.645Z,22.13
2022-08-14T05:37:28.202Z,22.05
2022-08-14T05:39:58.392Z,21.95
2022-08-14T05:42:29.215Z,21.83
2022-08-14T05:45:02.167Z,21.71
2022-08-14T05:47:34.107Z,21.48
2022-08-14T05:50:17.607Z,21.26
2022-08-14T05:52:48.212Z,21.08
2022-08-14T05:55:16.705Z,20.90
2022-08-14T05:57:50.893Z,20.80
2022-08-14T06:00:24.760Z,20.70
2022-08-14T06:03:00.101Z,20.69
2022-08-14T06:05:29.245Z,20.72
2022-08-14T06:07:58.650Z,20.72
2022-08-14T06:10:28.196Z,20.67
2022-08-14T06:13:03.421Z,20.84
2022-08-14T06:15:30.858Z,20.86
2022-08-14T06:17:59.877Z,20.84
2022-08-14T06:20:28.085Z,20.66
2022-08-14T06:22:56.238Z,20.66
2022-08-14T06:25:25.062Z,20.61
2022-08-14T06:27:52.886Z,20.52
2022-08-14T06:32:52.623Z,20.42
2022-08-14T06:35:23.610Z,20.32
2022-08-14T06:37:50.711Z,20.24
2022-08-14T06:40:27.664Z,20.17
2022-08-14T06:43:00.464Z,20.18
2022-08-14T06:45:31.712Z,20.25
2022-08-14T06:47:59.547Z,20.31
2022-08-14T06:50:28.582Z,20.35
2022-08-14T06:53:00.526Z,20.35
2022-08-14T06:55:29.499Z,20.34
2022-08-14T06:57:57.739Z,20.34
2022-08-14T07:00:30.757Z,20.29
2022-08-14T07:03:31.899Z,20.27
2022-08-14T07:06:03.910Z,20.22
2022-08-14T07:08:38.851Z,20.20
2022-08-14T07:11:05.921Z,20.19
2022-08-14T07:13:32.826Z,20.21
2022-08-14T07:16:05.352Z,20.25
2022-08-14T07:18:35.512Z,20.20
2022-08-14T07:21:05.403Z,20.13
2022-08-14T07:23:35.148Z,20.10
2022-08-14T07:26:08.082Z,20.03
2022-08-14T07:28:43.368Z,20.03
2022-08-14T07:31:12.633Z,20.05
2022-08-14T07:33:50.750Z,20.04
2022-08-14T07:36:27.204Z,20.01
2022-08-14T07:39:00.899Z,19.85
2022-08-14T07:41:42.459Z,19.83
2022-08-14T07:44:32.351Z,19.82
2022-08-14T07:46:58.717Z,19.88
2022-08-14T07:49:26.173Z,19.98
2022-08-14T07:51:53.369Z,20.09
2022-08-14T07:54:23.091Z,20.17
2022-08-14T07:56:59.840Z,20.24
2022-08-14T07:59:40.816Z,20.31
2022-08-14T08:02:17.145Z,20.34
2022-08-14T08:04:49.261Z,20.37
2022-08-14T08:07:16.555Z,20.41
2022-08-14T08:09:49.366Z,20.49
2022-08-14T08:12:26.192Z,20.59
2022-08-14T08:15:02.912Z,20.68
2022-08-14T08:17:42.615Z,20.78
2022-08-14T08:20:24.737Z,20.80
2022-08-14T08:23:05.942Z,20.82
2022-08-14T08:25:40.001Z,20.79
2022-08-14T08:28:21.920Z,20.69
2022-08-14T08:30:54.539Z,20.64
2022-08-14T08:33:32.053Z,20.63
2022-08-14T08:36:01.173Z,20.68
2022-08-14T08:39:17.532Z,20.71
2022-08-14T08:41:15.616Z,20.73
2022-08-14T08:43:46.697Z,20.74
2022-08-14T08:46:21.408Z,20.75
2022-08-14T08:51:34.328Z,20.83
2022-08-14T08:54:18.542Z,20.94
2022-08-14T08:56:56.084Z,21.04
2022-08-14T08:59:34.447Z,21.00
2022-08-14T09:02:05.398Z,20.95
2022-08-14T09:04:45.489Z,20.92
2022-08-14T09:07:26.714Z,20.85
2022-08-14T09:09:59.196Z,20.84
2022-08-14T09:12:32.572Z,20.87
2022-08-14T09:15:11.764Z,20.97
2022-08-14T09:17:43.980Z,21.13
2022-08-14T09:20:12.750Z,21.29
2022-08-14T09:22:47.885Z,21.37
2022-08-14T09:25:19.496Z,21.47
2022-08-14T09:27:47.229Z,21.58
2022-08-14T09:30:31.542Z,21.74
2022-08-14T09:33:11.156Z,22.00
2022-08-14T09:36:18.519Z,22.34
2022-08-14T09:39:03.695Z,22.65
2022-08-14T09:42:20.089Z,22.78
2022-08-14T09:45:02.911Z,22.86
2022-08-14T09:47:52.074Z,22.94
2022-08-14T09:50:44.070Z,23.12
2022-08-14T09:53:18.138Z,23.28
2022-08-14T09:55:46.030Z,23.41
2022-08-14T09:58:19.928Z,23.71
2022-08-14T10:01:00.791Z,24.03
2022-08-14T10:03:34.015Z,24.37
2022-08-14T10:06:14.153Z,24.83
2022-08-14T10:08:51.259Z,25.17
2022-08-14T10:11:34.834Z,25.33
2022-08-14T10:14:34.995Z,25.34
2022-08-14T10:17:06.247Z,25.26
2022-08-14T10:19:35.885Z,25.13
2022-08-14T10:23:12.223Z,25.10
2022-08-14T10:24:54.889Z,25.42
2022-08-14T10:27:24.618Z,25.79
2022-08-14T10:29:55.919Z,26.30
2022-08-14T10:32:36.178Z,26.82
2022-08-14T10:35:14.281Z,27.29
2022-08-14T10:37:50.440Z,27.39
2022-08-14T10:40:43.935Z,27.69
2022-08-14T10:43:26.754Z,28.33
2022-08-14T10:46:58.964Z,29.38
2022-08-14T10:49:05.259Z,30.40
2022-08-14T10:51:41.794Z,30.72
2022-08-14T10:54:17.131Z,31.29
2022-08-14T10:57:10.365Z,32.36
2022-08-14T11:00:14.646Z,33.15
2022-08-14T11:02:59.655Z,33.99
2022-08-14T11:05:41.851Z,34.68
2022-08-14T11:08:12.728Z,35.39
2022-08-14T11:10:47.925Z,35.58
2022-08-14T11:13:24.422Z,35.34
2022-08-14T11:15:52.789Z,35.23
2022-08-14T11:18:30.046Z,34.88
2022-08-14T11:21:01.915Z,34.74
2022-08-14T11:23:38.088Z,35.07
2022-08-14T11:26:07.281Z,34.87
2022-08-14T11:28:47.149Z,34.85
2022-08-14T11:31:21.949Z,34.17
2022-08-14T11:33:54.015Z,33.33
2022-08-14T11:36:35.235Z,32.97
2022-08-14T11:39:34.901Z,33.38
2022-08-14T11:42:55.201Z,34.18
2022-08-14T11:44:56.510Z,34.80
2022-08-14T11:47:27.336Z,35.19
2022-08-14T11:50:33.995Z,35.34
2022-08-14T11:53:07.667Z,34.93
2022-08-14T11:55:38.358Z,34.54
2022-08-14T11:58:10.607Z,34.05
2022-08-14T12:00:55.295Z,33.65
2022-08-14T12:03:38.116Z,33.62
2022-08-14T12:06:27.957Z,33.85
2022-08-14T12:08:56.804Z,33.93
2022-08-14T12:11:43.021Z,33.62
2022-08-14T12:14:31.040Z,33.53
2022-08-14T12:17:02.507Z,33.62
2022-08-14T12:19:33.712Z,33.72
2022-08-14T12:22:03.251Z,33.42
2022-08-14T12:24:39.948Z,32.91
2022-08-14T12:27:07.352Z,32.98
2022-08-14T12:29:34.819Z,33.13
2022-08-14T12:32:06.790Z,33.26
2022-08-14T12:34:37.372Z,33.32
2022-08-14T12:37:06.370Z,33.40
2022-08-14T12:39:39.538Z,33.29
2022-08-14T12:42:08.128Z,33.16
2022-08-14T12:44:43.106Z,32.62
2022-08-14T12:47:13.169Z,32.39
2022-08-14T12:49:52.644Z,32.20
2022-08-14T12:52:44.592Z,31.65
2022-08-14T12:55:21.991Z,31.21
2022-08-14T12:57:53.144Z,31.04
2022-08-14T13:00:25.526Z,30.80
2022-08-14T13:02:56.616Z,30.70
2022-08-14T13:05:27.784Z,30.46
2022-08-14T13:07:57.344Z,30.19
2022-08-14T13:10:47.494Z,30.17
2022-08-14T13:13:17.698Z,30.57
2022-08-14T13:15:47.657Z,30.98
2022-08-14T13:18:15.968Z,31.31
2022-08-14T13:20:49.395Z,31.35
2022-08-14T13:23:19.441Z,31.43
2022-08-14T13:25:58.251Z,31.01
2022-08-14T13:28:33.103Z,30.78
2022-08-14T13:31:11.186Z,30.74
2022-08-14T13:33:40.699Z,30.85
2022-08-14T13:36:24.101Z,30.93
2022-08-14T13:39:00.849Z,30.71
2022-08-14T13:41:31.764Z,30.69
2022-08-14T13:44:04.076Z,30.83
2022-08-14T13:46:31.456Z,31.11
2022-08-14T13:48:59.899Z,31.38
2022-08-14T13:51:36.011Z,31.63
2022-08-14T13:54:11.565Z,31.92
2022-08-14T13:56:41.878Z,32.22
2022-08-14T13:59:10.146Z,32.50
2022-08-14T14:01:43.847Z,32.81
2022-08-14T14:04:19.797Z,33.13
2022-08-14T14:06:49.673Z,33.43
2022-08-14T14:09:32.445Z,33.31
2022-08-14T14:12:49.022Z,33.38
2022-08-14T14:14:56.145Z,33.27
2022-08-14T14:17:25.123Z,33.08
2022-08-14T14:19:56.566Z,32.55
2022-08-14T14:22:35.779Z,31.71
2022-08-14T14:25:14.572Z,30.58
2022-08-14T14:27:49.322Z,29.42
2022-08-14T14:30:46.471Z,28.60
2022-08-14T14:33:28.916Z,27.91
2022-08-14T14:35:59.187Z,27.51
2022-08-14T14:38:32.584Z,27.37
2022-08-14T14:41:09.916Z,27.34
